createdAt,value
2018-11-29T00:02:23.116Z,25.03
2018-11-29T00:04:49.912Z,23.70
2018-11-29T00:07:16.681Z,22.00
2018-11-29T00:09:43.457Z,23.87
2018-11-29T00:12:10.209Z,22.93
2018-11-29T00:14:37.007Z,22.53
2018-11-29T00:17:03.764Z,20.87
2018-11-29T00:19:30.723Z,24.17
2018-11-29T00:21:57.691Z,22.97
2018-11-29T00:24:24.540Z,22.03
2018-11-29T00:26:51.342Z,25.40
2018-11-29T00:29:18.177Z,25.40
2018-11-29T00:31:44.982Z,23.50
2018-11-29T00:34:11.821Z,24.70
2018-11-29T00:36:38.614Z,19.10
2018-11-29T00:39:06.141Z,23.10
2018-11-29T00:41:32.954Z,27.13
2018-11-29T00:43:59.770Z,21.70
2018-11-29T00:46:26.586Z,22.47
2018-11-29T00:48:53.412Z,26.13
2018-11-29T00:51:20.222Z,27.10
2018-11-29T00:53:47.026Z,25.57
2018-11-29T00:56:13.830Z,25.57
2018-11-29T00:58:40.646Z,24.13
2018-11-29T01:01:07.466Z,24.87
2018-11-29T01:03:34.369Z,18.63
2018-11-29T01:06:01.166Z,25.25
2018-11-29T01:08:27.976Z,24.77
2018-11-29T01:10:54.810Z,27.17
2018-11-29T01:13:21.616Z,24.80
2018-11-29T01:15:48.443Z,23.07
2018-11-29T01:18:15.254Z,24.50
2018-11-29T01:20:42.093Z,23.03
2018-11-29T01:23:08.885Z,28.50
2018-11-29T01:25:35.729Z,26.10
2018-11-29T01:28:02.533Z,22.30
2018-11-29T01:30:29.373Z,22.30
2018-11-29T01:32:56.193Z,24.65
2018-11-29T01:35:23.009Z,23.93
2018-11-29T01:37:49.822Z,24.20
2018-11-29T01:40:21.216Z,24.50
2018-11-29T01:42:52.265Z,22.63
2018-11-29T01:45:19.092Z,23.03
2018-11-29T01:47:45.902Z,24.00
2018-11-29T01:50:12.725Z,21.13
2018-11-29T01:52:39.514Z,20.27
2018-11-29T01:55:07.409Z,20.17
2018-11-29T01:57:34.262Z,19.60
2018-11-29T02:00:01.094Z,18.27
2018-11-29T02:02:27.909Z,21.40
2018-11-29T02:04:54.754Z,21.47
2018-11-29T02:07:21.561Z,21.97
2018-11-29T02:09:48.399Z,20.43
2018-11-29T02:12:15.206Z,20.47
2018-11-29T02:14:42.038Z,24.20
2018-11-29T02:17:08.853Z,21.03
2018-11-29T02:19:35.681Z,22.40
2018-11-29T02:22:02.477Z,23.90
2018-11-29T02:24:29.310Z,22.80
2018-11-29T02:26:56.110Z,27.15
2018-11-29T02:29:22.943Z,22.83
2018-11-29T02:31:49.759Z,22.47
2018-11-29T02:34:16.589Z,24.33
2018-11-29T02:36:43.395Z,25.57
2018-11-29T02:39:10.222Z,21.77
2018-11-29T02:41:37.031Z,23.57
2018-11-29T02:44:03.921Z,24.70
2018-11-29T02:46:30.737Z,25.50
2018-11-29T02:48:57.616Z,23.70
2018-11-29T02:51:24.427Z,22.93
2018-11-29T02:53:51.246Z,21.40
2018-11-29T02:56:18.064Z,23.63
2018-11-29T02:58:44.899Z,20.17
2018-11-29T03:01:11.710Z,25.30
2018-11-29T03:03:38.545Z,21.50
2018-11-29T03:06:05.353Z,21.27
2018-11-29T03:08:32.174Z,27.37
2018-11-29T03:10:58.959Z,25.07
2018-11-29T03:13:25.791Z,20.63
2018-11-29T03:15:52.614Z,22.57
2018-11-29T03:18:19.415Z,22.33
2018-11-29T03:20:46.250Z,28.90
2018-11-29T03:23:13.062Z,24.23
2018-11-29T03:25:39.906Z,26.40
2018-11-29T03:28:06.762Z,23.53
2018-11-29T03:30:33.590Z,26.30
2018-11-29T03:33:00.454Z,29.77
2018-11-29T03:35:27.280Z,19.67
2018-11-29T03:37:54.082Z,23.20
2018-11-29T03:40:20.909Z,20.00
2018-11-29T03:42:47.717Z,25.70
2018-11-29T03:45:15.130Z,23.60
2018-11-29T03:47:41.947Z,26.27
2018-11-29T03:50:10.861Z,24.20
2018-11-29T03:52:37.711Z,26.63
2018-11-29T03:55:05.666Z,24.67
2018-11-29T03:57:32.467Z,24.43
2018-11-29T03:59:59.294Z,26.10
2018-11-29T04:02:26.094Z,31.02
2018-11-29T04:04:52.919Z,29.70
2018-11-29T04:07:19.715Z,29.07
2018-11-29T04:09:46.553Z,27.90
2018-11-29T04:12:13.385Z,25.17
2018-11-29T04:14:40.202Z,29.90
2018-11-29T04:17:07.001Z,30.90
2018-11-29T04:19:33.836Z,26.50
2018-11-29T04:22:00.625Z,31.85
2018-11-29T04:24:27.461Z,31.67
2018-11-29T04:26:54.255Z,37.17
2018-11-29T04:29:21.071Z,28.60
2018-11-29T04:31:47.882Z,33.85
2018-11-29T04:34:14.690Z,30.63
2018-11-29T04:36:41.497Z,34.40
2018-11-29T04:39:08.366Z,29.10
2018-11-29T04:41:35.199Z,26.67
2018-11-29T04:44:02.107Z,28.38
2018-11-29T04:46:45.918Z,29.23
2018-11-29T04:49:12.755Z,34.65
2018-11-29T04:51:39.603Z,30.73
2018-11-29T04:54:07.075Z,35.15
2018-11-29T04:56:33.956Z,31.40
2018-11-29T04:59:00.729Z,33.50
2018-11-29T05:01:27.561Z,35.27
2018-11-29T05:03:54.371Z,25.90
2018-11-29T05:06:21.197Z,31.80
2018-11-29T05:08:47.979Z,30.00
2018-11-29T05:11:14.793Z,29.60
2018-11-29T05:13:41.597Z,26.23
2018-11-29T05:16:08.423Z,33.45
2018-11-29T05:18:35.237Z,31.83
2018-11-29T05:21:02.109Z,30.00
2018-11-29T05:23:28.914Z,27.53
2018-11-29T05:25:55.829Z,31.00
2018-11-29T05:28:22.646Z,34.00
2018-11-29T05:30:49.481Z,31.50
2018-11-29T05:33:16.342Z,34.73
2018-11-29T05:35:43.170Z,30.67
2018-11-29T05:38:09.975Z,33.20
2018-11-29T05:40:36.810Z,30.40
2018-11-29T05:43:03.986Z,25.67
2018-11-29T05:45:30.815Z,29.20
2018-11-29T05:47:57.618Z,27.83
2018-11-29T05:50:24.438Z,26.50
2018-11-29T05:52:51.237Z,30.77
2018-11-29T05:55:18.101Z,30.43
2018-11-29T05:57:44.852Z,31.47
2018-11-29T06:00:12.717Z,28.93
2018-11-29T06:02:39.517Z,26.40
2018-11-29T06:05:08.957Z,31.07
2018-11-29T06:07:35.789Z,27.37
2018-11-29T06:10:02.592Z,32.17
2018-11-29T06:12:29.414Z,29.87
2018-11-29T06:14:56.217Z,34.90
2018-11-29T06:17:23.061Z,29.77
2018-11-29T06:19:49.873Z,26.63
2018-11-29T06:22:16.719Z,27.07
2018-11-29T06:24:43.521Z,28.33
2018-11-29T06:27:10.345Z,29.90
2018-11-29T06:29:37.188Z,25.30
2018-11-29T06:32:04.414Z,25.67
2018-11-29T06:34:31.181Z,25.97
2018-11-29T06:36:57.974Z,26.47
2018-11-29T06:39:24.732Z,25.97
2018-11-29T06:41:51.529Z,27.23
2018-11-29T06:44:18.303Z,28.50
2018-11-29T06:46:45.084Z,26.63
2018-11-29T06:49:11.842Z,27.90
2018-11-29T06:51:38.692Z,31.40
2018-11-29T06:54:05.509Z,31.10
2018-11-29T06:56:32.297Z,31.17
2018-11-29T06:58:59.088Z,35.20
2018-11-29T07:01:25.876Z,32.63
2018-11-29T07:03:52.641Z,31.37
2018-11-29T07:06:19.436Z,35.87
2018-11-29T07:08:46.192Z,34.40
2018-11-29T07:11:12.973Z,36.45
2018-11-29T07:13:39.732Z,34.30
2018-11-29T07:16:06.538Z,32.00
2018-11-29T07:18:33.368Z,36.63
2018-11-29T07:21:11.716Z,31.67
2018-11-29T07:23:38.496Z,36.17
2018-11-29T07:26:05.556Z,33.80
2018-11-29T07:28:32.337Z,38.67
2018-11-29T07:30:59.100Z,38.83
2018-11-29T07:33:25.893Z,36.40
2018-11-29T07:35:52.660Z,37.38
2018-11-29T07:38:19.457Z,32.43
2018-11-29T07:40:46.228Z,34.08
2018-11-29T07:43:13.016Z,31.20
2018-11-29T07:45:39.797Z,28.20
2018-11-29T07:48:06.608Z,33.85
2018-11-29T07:50:33.397Z,28.80
2018-11-29T07:53:00.195Z,32.80
2018-11-29T07:55:26.960Z,29.93
2018-11-29T07:57:53.766Z,30.40
2018-11-29T08:00:20.577Z,27.43
2018-11-29T08:02:47.357Z,32.42
2018-11-29T08:05:14.610Z,33.83
2018-11-29T08:07:47.313Z,33.87
2018-11-29T08:10:11.334Z,30.90
2018-11-29T08:12:38.133Z,25.73
2018-11-29T08:15:07.384Z,28.47
2018-11-29T08:17:34.185Z,30.50
2018-11-29T08:20:00.953Z,27.17
2018-11-29T08:22:27.737Z,30.40
2018-11-29T08:24:54.542Z,28.60
2018-11-29T08:27:21.293Z,28.43
2018-11-29T08:29:48.073Z,28.97
2018-11-29T08:32:14.873Z,26.07
2018-11-29T08:34:41.673Z,31.97
2018-11-29T08:37:08.456Z,34.98
2018-11-29T08:39:35.225Z,31.10
2018-11-29T08:42:02.001Z,28.93
2018-11-29T08:44:28.776Z,27.10
2018-11-29T08:46:55.569Z,32.80
2018-11-29T08:49:22.353Z,30.33
2018-11-29T08:51:49.145Z,31.37
2018-11-29T08:54:15.901Z,31.57
2018-11-29T08:56:42.692Z,30.97
2018-11-29T08:59:09.457Z,30.37
2018-11-29T09:01:36.254Z,31.37
2018-11-29T09:04:03.017Z,29.80
2018-11-29T09:06:29.793Z,32.17
2018-11-29T09:08:56.572Z,27.87
2018-11-29T09:11:23.333Z,28.73
2018-11-29T09:13:50.121Z,28.07
2018-11-29T09:16:16.892Z,27.40
2018-11-29T09:18:43.685Z,28.73
2018-11-29T09:21:10.453Z,27.63
2018-11-29T09:23:37.354Z,28.50
2018-11-29T09:26:04.485Z,31.80
2018-11-29T09:28:31.277Z,25.30
2018-11-29T09:30:58.046Z,24.53
2018-11-29T09:33:24.844Z,26.47
2018-11-29T09:35:51.624Z,24.90
2018-11-29T09:38:18.402Z,26.57
2018-11-29T09:40:45.185Z,27.63
2018-11-29T09:43:11.976Z,25.27
2018-11-29T09:45:38.756Z,28.07
2018-11-29T09:48:05.608Z,27.67
2018-11-29T09:50:32.372Z,26.43
2018-11-29T09:52:59.156Z,27.10
2018-11-29T09:55:25.936Z,23.80
2018-11-29T09:57:52.734Z,30.30
2018-11-29T10:00:27.887Z,25.10
2018-11-29T10:02:53.917Z,26.07
2018-11-29T10:05:20.700Z,25.90
2018-11-29T10:07:47.493Z,27.07
2018-11-29T10:10:14.276Z,28.93
2018-11-29T10:12:41.077Z,24.70
2018-11-29T10:15:10.753Z,25.30
2018-11-29T10:17:37.593Z,29.90
2018-11-29T10:20:13.476Z,30.08
2018-11-29T10:22:41.128Z,28.20
2018-11-29T10:25:11.844Z,29.33
2018-11-29T10:27:38.765Z,29.70
2018-11-29T10:30:10.253Z,24.63
2018-11-29T10:32:37.021Z,26.30
2018-11-29T10:35:04.029Z,25.93
2018-11-29T10:37:30.800Z,27.93
2018-11-29T10:39:57.581Z,31.13
2018-11-29T10:42:24.369Z,29.60
2018-11-29T10:44:51.153Z,24.97
2018-11-29T10:47:17.924Z,24.40
2018-11-29T10:49:44.725Z,24.17
2018-11-29T10:52:11.488Z,25.00
2018-11-29T10:54:38.277Z,29.43
2018-11-29T10:57:05.804Z,26.60
2018-11-29T10:59:32.607Z,25.47
2018-11-29T11:02:20.155Z,24.43
2018-11-29T11:04:46.845Z,30.90
2018-11-29T11:07:13.621Z,24.17
2018-11-29T11:09:40.410Z,26.40
2018-11-29T11:12:07.191Z,28.03
2018-11-29T11:14:33.993Z,24.00
2018-11-29T11:17:00.762Z,26.60
2018-11-29T11:19:27.556Z,24.83
2018-11-29T11:21:54.334Z,26.20
2018-11-29T11:24:21.117Z,27.57
2018-11-29T11:26:47.888Z,25.60
2018-11-29T11:29:14.705Z,21.47
2018-11-29T11:31:41.498Z,23.40
2018-11-29T11:34:08.285Z,24.67
2018-11-29T11:36:35.049Z,23.70
2018-11-29T11:39:01.833Z,23.60
2018-11-29T11:41:28.605Z,24.80
2018-11-29T11:43:55.418Z,25.30
2018-11-29T11:46:22.165Z,23.07
2018-11-29T11:48:48.964Z,26.03
2018-11-29T11:51:15.840Z,29.03
2018-11-29T11:53:42.626Z,29.77
2018-11-29T11:56:09.396Z,29.43
2018-11-29T11:58:36.270Z,26.00
2018-11-29T12:01:03.076Z,26.00
2018-11-29T12:03:29.841Z,26.40
2018-11-29T12:05:56.661Z,24.23
2018-11-29T12:08:23.536Z,25.13
2018-11-29T12:10:50.374Z,25.73
2018-11-29T12:13:17.176Z,28.00
2018-11-29T12:15:43.928Z,25.30
2018-11-29T12:18:11.877Z,24.90
2018-11-29T12:20:38.730Z,26.83
2018-11-29T12:23:06.289Z,25.90
2018-11-29T12:25:33.077Z,23.17
2018-11-29T12:27:59.874Z,25.90
2018-11-29T12:30:30.621Z,27.20
2018-11-29T12:33:01.541Z,27.60
2018-11-29T12:35:28.361Z,25.83
2018-11-29T12:37:55.132Z,26.30
2018-11-29T12:40:21.941Z,21.63
2018-11-29T12:42:48.712Z,25.90
2018-11-29T12:45:15.509Z,24.77
2018-11-29T12:47:42.642Z,23.17
2018-11-29T12:50:26.901Z,25.37
2018-11-29T12:52:53.713Z,21.80
2018-11-29T12:55:21.693Z,23.70
2018-11-29T12:58:04.347Z,23.43
2018-11-29T13:00:20.289Z,23.97
2018-11-29T13:02:57.338Z,55.27
2018-11-29T13:05:24.729Z,28.40
2018-11-29T13:07:51.503Z,23.37
2018-11-29T13:10:19.961Z,24.93
2018-11-29T13:12:46.737Z,23.47
2018-11-29T13:15:16.442Z,24.90
2018-11-29T13:17:43.192Z,32.13
2018-11-29T13:20:11.108Z,25.47
2018-11-29T13:22:37.893Z,23.00
2018-11-29T13:25:07.365Z,29.07
2018-11-29T13:27:34.125Z,25.50
2018-11-29T13:30:00.914Z,29.67
2018-11-29T13:32:27.692Z,25.10
2018-11-29T13:34:54.457Z,23.50
2018-11-29T13:37:21.310Z,22.57
2018-11-29T13:39:48.029Z,27.10
2018-11-29T13:42:14.822Z,25.50
2018-11-29T13:44:41.586Z,25.53
2018-11-29T13:47:08.365Z,27.10
2018-11-29T13:49:35.132Z,31.10
2018-11-29T13:52:02.033Z,28.43
2018-11-29T13:54:28.692Z,24.70
2018-11-29T13:56:55.480Z,28.00
2018-11-29T13:59:22.241Z,24.70
2018-11-29T14:01:49.028Z,31.30
2018-11-29T14:04:15.796Z,26.63
2018-11-29T14:06:42.577Z,29.43
2018-11-29T14:09:09.517Z,28.23
2018-11-29T14:11:36.250Z,30.63
2018-11-29T14:14:03.068Z,27.93
2018-11-29T14:16:29.937Z,32.13
2018-11-29T14:18:56.696Z,28.00
2018-11-29T14:21:23.540Z,29.17
2018-11-29T14:23:50.369Z,31.30
2018-11-29T14:26:17.233Z,31.43
2018-11-29T14:28:44.010Z,34.47
2018-11-29T14:31:10.788Z,31.43
2018-11-29T14:33:37.564Z,23.97
2018-11-29T14:36:04.366Z,30.50
2018-11-29T14:38:31.124Z,30.45
2018-11-29T14:40:57.973Z,28.17
2018-11-29T14:43:24.728Z,29.20
2018-11-29T14:45:51.508Z,32.65
2018-11-29T14:48:18.377Z,26.57
2018-11-29T14:50:45.814Z,25.30
2018-11-29T14:53:12.585Z,24.93
2018-11-29T14:55:39.716Z,27.90
2018-11-29T14:58:07.808Z,27.10
2018-11-29T15:00:34.843Z,30.03
2018-11-29T15:03:03.933Z,32.10
2018-11-29T15:05:31.207Z,32.93
2018-11-29T15:07:58.090Z,26.93
2018-11-29T15:10:24.880Z,29.45
2018-11-29T15:12:51.684Z,26.97
2018-11-29T15:15:18.558Z,30.10
2018-11-29T15:17:46.108Z,29.63
2018-11-29T15:20:16.720Z,31.47
2018-11-29T15:22:43.751Z,25.80
2018-11-29T15:25:10.496Z,26.87
2018-11-29T15:27:37.290Z,30.33
2018-11-29T15:30:09.936Z,32.00
2018-11-29T15:32:36.713Z,31.68
2018-11-29T15:35:04.224Z,32.90
2018-11-29T15:37:31.011Z,31.73
2018-11-29T15:39:57.769Z,30.53
2018-11-29T15:42:24.585Z,29.60
2018-11-29T15:44:51.429Z,29.43
2018-11-29T15:47:18.229Z,30.20
2018-11-29T15:49:45.012Z,29.80
2018-11-29T15:52:11.807Z,27.20
2018-11-29T15:54:38.593Z,26.27
2018-11-29T15:57:05.373Z,25.67
2018-11-29T15:59:32.132Z,32.10
2018-11-29T16:01:58.892Z,28.33
2018-11-29T16:04:25.766Z,28.17
2018-11-29T16:06:52.540Z,23.83
2018-11-29T16:09:19.361Z,22.00
2018-11-29T16:11:46.127Z,28.80
2018-11-29T16:14:13.064Z,34.13
2018-11-29T16:16:39.828Z,38.40
2018-11-29T16:19:06.660Z,27.80
2018-11-29T16:21:33.426Z,32.70
2018-11-29T16:24:00.210Z,30.10
2018-11-29T16:26:27.040Z,31.23
2018-11-29T16:28:53.836Z,34.47
2018-11-29T16:31:20.608Z,32.03
2018-11-29T16:33:47.388Z,34.40
2018-11-29T16:36:14.157Z,30.67
2018-11-29T16:38:40.958Z,31.47
2018-11-29T16:41:07.724Z,40.50
2018-11-29T16:43:34.517Z,36.13
2018-11-29T16:46:01.269Z,33.50
2018-11-29T16:48:28.061Z,30.20
2018-11-29T16:50:54.841Z,28.60
2018-11-29T16:53:21.625Z,30.37
2018-11-29T16:55:48.462Z,29.93
2018-11-29T16:58:17.817Z,26.57
2018-11-29T17:00:44.573Z,31.30
2018-11-29T17:03:11.376Z,27.60
2018-11-29T17:05:38.144Z,29.33
2018-11-29T17:08:05.393Z,32.17
2018-11-29T17:10:32.165Z,39.37
2018-11-29T17:13:00.465Z,48.30
2018-11-29T17:15:27.228Z,63.23
2018-11-29T17:17:54.008Z,38.13
2018-11-29T17:20:20.786Z,33.37
2018-11-29T17:22:48.668Z,33.37
2018-11-29T17:25:15.472Z,30.73
2018-11-29T17:27:42.228Z,31.50
2018-11-29T17:30:12.713Z,24.30
2018-11-29T17:32:39.573Z,53.87
2018-11-29T17:35:06.457Z,52.83
2018-11-29T17:37:33.221Z,47.47
2018-11-29T17:40:00.073Z,48.43
2018-11-29T17:42:26.837Z,39.73
2018-11-29T17:44:53.609Z,31.60
2018-11-29T17:47:20.412Z,37.37
2018-11-29T17:49:47.235Z,37.47
2018-11-29T17:52:14.021Z,33.47
2018-11-29T17:54:40.809Z,29.03
2018-11-29T17:57:07.585Z,31.27
2018-11-29T17:59:34.380Z,32.80
2018-11-29T18:02:01.149Z,35.17
2018-11-29T18:04:28.047Z,30.63
2018-11-29T18:06:54.819Z,28.70
2018-11-29T18:09:21.616Z,31.13
2018-11-29T18:11:48.388Z,35.07
2018-11-29T18:14:15.175Z,45.40
2018-11-29T18:16:41.949Z,38.90
2018-11-29T18:19:13.167Z,44.10
2018-11-29T18:21:35.554Z,40.57
2018-11-29T18:24:02.364Z,43.17
2018-11-29T18:26:29.140Z,48.10
2018-11-29T18:28:55.932Z,33.67
2018-11-29T18:31:22.688Z,41.63
2018-11-29T18:33:49.480Z,40.80
2018-11-29T18:36:16.382Z,43.38
2018-11-29T18:38:43.226Z,45.03
2018-11-29T18:41:09.868Z,65.50
2018-11-29T18:43:36.781Z,88.00
2018-11-29T18:46:03.888Z,58.77
2018-11-29T18:48:30.645Z,63.50
2018-11-29T18:50:57.428Z,51.47
2018-11-29T18:53:24.204Z,57.60
2018-11-29T18:55:51.049Z,45.67
2018-11-29T18:58:18.024Z,43.20
2018-11-29T19:00:44.850Z,39.77
2018-11-29T19:03:11.608Z,43.80
2018-11-29T19:05:38.416Z,44.30
2018-11-29T19:08:07.085Z,39.93
2018-11-29T19:10:33.966Z,36.53
2018-11-29T19:13:01.997Z,37.83
2018-11-29T19:15:28.785Z,34.40
2018-11-29T19:17:55.586Z,31.80
2018-11-29T19:20:22.364Z,39.43
2018-11-29T19:22:49.133Z,34.93
2018-11-29T19:25:16.841Z,40.13
2018-11-29T19:27:43.598Z,34.70
2018-11-29T19:30:13.748Z,34.57
2018-11-29T19:32:40.513Z,26.40
2018-11-29T19:35:08.214Z,28.60
2018-11-29T19:37:35.053Z,24.13
2018-11-29T19:40:01.874Z,32.70
2018-11-29T19:42:28.627Z,27.73
2018-11-29T19:44:55.421Z,21.37
2018-11-29T19:47:22.214Z,21.80
2018-11-29T19:49:49.017Z,23.87
2018-11-29T19:52:15.793Z,26.10
2018-11-29T19:54:42.573Z,23.60
2018-11-29T19:57:09.333Z,26.10
2018-11-29T19:59:36.187Z,29.70
2018-11-29T20:02:02.985Z,22.20
2018-11-29T20:04:29.746Z,25.67
2018-11-29T20:06:56.540Z,26.27
2018-11-29T20:09:23.304Z,29.17
2018-11-29T20:11:50.080Z,25.60
2018-11-29T20:14:16.856Z,21.87
2018-11-29T20:16:43.642Z,28.43
2018-11-29T20:19:10.409Z,19.03
2018-11-29T20:21:37.237Z,24.57
2018-11-29T20:24:04.260Z,25.27
2018-11-29T20:26:31.044Z,28.30
2018-11-29T20:28:57.808Z,24.67
2018-11-29T20:31:24.593Z,25.43
2018-11-29T20:33:51.377Z,25.17
2018-11-29T20:36:18.171Z,31.20
2018-11-29T20:38:44.932Z,28.73
2018-11-29T20:41:11.717Z,25.20
2018-11-29T20:43:38.496Z,24.13
2018-11-29T20:46:05.545Z,21.47
2018-11-29T20:48:32.336Z,21.03
2018-11-29T20:50:59.560Z,27.73
2018-11-29T20:53:32.184Z,26.33
2018-11-29T20:55:58.972Z,24.20
2018-11-29T20:58:25.817Z,33.67
2018-11-29T21:00:52.573Z,34.95
2018-11-29T21:03:19.352Z,29.67
2018-11-29T21:05:46.125Z,31.47
2018-11-29T21:08:12.941Z,27.73
2018-11-29T21:10:39.733Z,30.00
2018-11-29T21:13:07.408Z,24.73
2018-11-29T21:15:37.209Z,26.97
2018-11-29T21:18:04.392Z,27.20
2018-11-29T21:20:31.153Z,25.30
2018-11-29T21:22:58.494Z,25.80
2018-11-29T21:25:25.341Z,24.93
2018-11-29T21:27:52.120Z,26.27
2018-11-29T21:30:18.867Z,22.37
2018-11-29T21:32:45.736Z,26.70
2018-11-29T21:35:13.704Z,34.50
2018-11-29T21:37:40.512Z,38.80
2018-11-29T21:40:11.185Z,37.10
2018-11-29T21:42:37.965Z,38.13
2018-11-29T21:45:04.752Z,38.97
2018-11-29T21:47:31.525Z,38.90
2018-11-29T21:49:58.325Z,35.10
2018-11-29T21:52:25.080Z,38.73
2018-11-29T21:54:51.864Z,40.73
2018-11-29T21:57:18.629Z,38.43
2018-11-29T21:59:45.460Z,32.43
2018-11-29T22:02:12.222Z,32.43
2018-11-29T22:04:38.993Z,29.33
2018-11-29T22:07:05.756Z,32.23
2018-11-29T22:09:32.532Z,31.67
2018-11-29T22:11:59.293Z,30.17
2018-11-29T22:14:26.081Z,32.00
2018-11-29T22:16:52.845Z,32.93
2018-11-29T22:19:19.609Z,29.10
2018-11-29T22:21:46.373Z,24.13
2018-11-29T22:24:13.169Z,28.40
2018-11-29T22:26:40.009Z,31.85
2018-11-29T22:29:06.760Z,40.37
2018-11-29T22:31:33.528Z,38.40
2018-11-29T22:34:00.312Z,42.10
2018-11-29T22:36:27.068Z,39.43
2018-11-29T22:38:53.853Z,31.97
2018-11-29T22:41:20.617Z,34.20
2018-11-29T22:43:47.441Z,27.63
2018-11-29T22:46:14.208Z,31.90
2018-11-29T22:48:40.985Z,34.70
2018-11-29T22:51:07.796Z,27.50
2018-11-29T22:53:34.586Z,30.43
2018-11-29T22:56:01.407Z,33.57
2018-11-29T22:58:28.227Z,28.00
2018-11-29T23:00:55.015Z,28.60
2018-11-29T23:03:21.737Z,29.30
2018-11-29T23:05:48.546Z,32.13
2018-11-29T23:08:15.305Z,30.20
2018-11-29T23:10:42.088Z,47.00
2018-11-29T23:13:08.853Z,104.23
2018-11-29T23:15:35.672Z,68.40
2018-11-29T23:18:02.437Z,65.63
2018-11-29T23:20:29.220Z,46.33
2018-11-29T23:22:56.011Z,46.20
2018-11-29T23:25:22.780Z,67.87
2018-11-29T23:27:49.630Z,51.10
2018-11-29T23:30:16.771Z,46.67
2018-11-29T23:32:43.717Z,43.97
2018-11-29T23:35:11.356Z,44.13
2018-11-29T23:37:38.116Z,40.90
2018-11-29T23:40:07.192Z,35.47
2018-11-29T23:42:33.957Z,37.43
2018-11-29T23:45:00.753Z,38.10
2018-11-29T23:47:27.517Z,42.07
2018-11-29T23:49:54.277Z,52.93
2018-11-29T23:52:21.028Z,59.50
2018-11-29T23:54:47.828Z,62.37
2018-11-29T23:57:14.595Z,37.17
2018-11-29T23:59:41.361Z,57.63
